Seacod — DDPW — position and weather

sailwx.info

Track history (hours):
 
Tides and Currents Weather Stations Pressure Air Temp Water Temp Dewpoint Dewpoint Depression Visibility Wind Speed Wind Dir Waves Ship Positions

Seacod

Last reported at 2014-Aug-23 03:32 UTC. Time now 2014-Aug-23 19:16 UTC.
Position N 51°57' E 004°05'.

Length 188 m; draft 10.2 m.

Type: Ship. MMSI: 218019000.

Date/timePositionNaut miles runAvg speedWind from/ knotsBaromVisibWave heightAir tempDewpointWater temp
2014-Aug-23 03:32N 51°57' E 004°05'0 0.0
2014-Aug-22 22:26N 51°57' E 004°05'0 0.0
2014-Aug-22 19:11N 51°57' E 004°05'0 0.0
2014-Aug-22 12:11N 51°57' E 004°05'0 0.0
2014-Aug-22 11:26N 51°57' E 004°05'0 0.0
2014-Aug-22 10:32N 51°57' E 004°05'0 0.0
2014-Aug-22 02:11N 51°57' E 004°05'1 1.1
2014-Aug-22 01:33N 51°58' E 004°05'8 7.5
2014-Aug-22 00:33N 52°02' E 003°55'7 6.9
2014-Aug-21 23:33N 51°59' E 003°44'6 0.4
2014-Aug-21 07:13N 51°56' E 003°36'0 0.0
2014-Aug-21 06:28N 51°56' E 003°36'0 0.0
2014-Aug-21 05:31N 51°56' E 003°36'318 7.4
2014-Aug-19 10:20N 56°42' E 007°35'810.0
2014-Aug-19 09:33N 56°48' E 007°43'29 8.8
2014-Aug-19 06:15N 57°12' E 008°13'75 8.5
2014-Aug-18 21:23N 57°47' E 010°17'910.9
2014-Aug-18 20:33N 57°49' E 010°34'1111.2
2014-Aug-18 19:33N 57°45' E 010°54'1312.8
2014-Aug-18 18:33N 57°36' E 011°11'1313.1
2014-Aug-18 17:33N 57°26' E 011°27'1313.5
2014-Aug-18 16:33N 57°14' E 011°35'1313.4
2014-Aug-18 15:33N 57°01' E 011°44'1313.0
2014-Aug-18 14:33N 56°49' E 011°52'1212.3
2014-Aug-18 13:33N 56°37' E 011°45'114 6.0
2014-Aug-17 18:27N 54°54' E 013°12'9211.7
2014-Aug-17 10:33N 55°43' E 015°28'1313.0
2014-Aug-17 09:33N 55°50' E 015°48'1312.9
2014-Aug-17 08:32N 55°56' E 016°09'31713.1
2014-Aug-16 08:27N 59°31' E 023°24'89 7.4
2014-Aug-15 20:33N 59°60' E 026°10'1412.6
2014-Aug-15 19:29N 60°01' E 026°37'  
2014-Aug-13 04:24N 59°58' E 027°01'1213.9
2014-Aug-13 03:33N 59°59' E 026°37'  
Track history (hours):
 
Tides and Currents Weather Stations Pressure Air Temp Water Temp Dewpoint Dewpoint Depression Visibility Wind Speed Wind Dir Waves Ship Positions

Seacod

Last reported at 2014-Aug-23 03:32 UTC. Time now 2014-Aug-23 19:16 UTC.
Position N 51°57' E 004°05'.

Length 188 m; draft 10.2 m.

Type: Ship. MMSI: 218019000.

Date/timePositionNaut miles runAvg speedWind from/ knotsBaromVisibWave heightAir tempDewpointWater temp
2014-Aug-23 03:32N 51°57' E 004°05'0 0.0
2014-Aug-22 22:26N 51°57' E 004°05'0 0.0
2014-Aug-22 19:11N 51°57' E 004°05'0 0.0
2014-Aug-22 12:11N 51°57' E 004°05'0 0.0
2014-Aug-22 11:26N 51°57' E 004°05'0 0.0
2014-Aug-22 10:32N 51°57' E 004°05'0 0.0
2014-Aug-22 02:11N 51°57' E 004°05'1 1.1
2014-Aug-22 01:33N 51°58' E 004°05'8 7.5
2014-Aug-22 00:33N 52°02' E 003°55'7 6.9
2014-Aug-21 23:33N 51°59' E 003°44'6 0.4
2014-Aug-21 07:13N 51°56' E 003°36'0 0.0
2014-Aug-21 06:28N 51°56' E 003°36'0 0.0
2014-Aug-21 05:31N 51°56' E 003°36'318 7.4
2014-Aug-19 10:20N 56°42' E 007°35'810.0
2014-Aug-19 09:33N 56°48' E 007°43'29 8.8
2014-Aug-19 06:15N 57°12' E 008°13'75 8.5
2014-Aug-18 21:23N 57°47' E 010°17'910.9
2014-Aug-18 20:33N 57°49' E 010°34'1111.2
2014-Aug-18 19:33N 57°45' E 010°54'1312.8
2014-Aug-18 18:33N 57°36' E 011°11'1313.1
2014-Aug-18 17:33N 57°26' E 011°27'1313.5
2014-Aug-18 16:33N 57°14' E 011°35'1313.4
2014-Aug-18 15:33N 57°01' E 011°44'1313.0
2014-Aug-18 14:33N 56°49' E 011°52'1212.3
2014-Aug-18 13:33N 56°37' E 011°45'114 6.0
2014-Aug-17 18:27N 54°54' E 013°12'9211.7
2014-Aug-17 10:33N 55°43' E 015°28'1313.0
2014-Aug-17 09:33N 55°50' E 015°48'1312.9
2014-Aug-17 08:32N 55°56' E 016°09'31713.1
2014-Aug-16 08:27N 59°31' E 023°24'89 7.4
2014-Aug-15 20:33N 59°60' E 026°10'1412.6
2014-Aug-15 19:29N 60°01' E 026°37'  
2014-Aug-13 04:24N 59°58' E 027°01'1213.9
2014-Aug-13 03:33N 59°59' E 026°37'  

Dump ship's entire track history